Time;durP1;ratioP1;P1;durP2;ratioP2;P2;SDS_P1;SDS_P2;PMS_P1;PMS_P2;Temp;Humidity;BMP_temperature;BMP_pressure;BME280_temperature;BME280_humidity;BME280_pressure;Samples;Min_cycle;Max_cycle;Signal;HPM_P1;HPM_P2
2023/07/21 00:02:10;;;;;;;1.30;1.20;;;;;;;;;;5069016;28;20205;-41
2023/07/21 00:04:37;;;;;;;1.83;1.10;;;;;;;;;;5062298;28;20491;-33
2023/07/21 00:07:04;;;;;;;5.40;1.60;;;;;;;;;;5065934;28;21134;-32
2023/07/21 00:09:32;;;;;;;5.80;1.57;;;;;;;;;;5068864;28;20221;-37
2023/07/21 00:11:59;;;;;;;2.03;1.40;;;;;;;;;;5059303;28;20206;-40
2023/07/21 00:14:28;;;;;;;4.00;1.30;;;;;;;;;;5064596;28;20231;-36
2023/07/21 00:16:55;;;;;;;2.50;1.10;;;;;;;;;;5065219;28;20205;-35
2023/07/21 00:19:22;;;;;;;1.38;1.25;;;;;;;;;;5069383;28;20515;-37
2023/07/21 00:21:51;;;;;;;1.23;1.17;;;;;;;;;;5062203;28;20212;-36
2023/07/21 00:24:20;;;;;;;1.60;1.50;;;;;;;;;;5067483;28;20231;-35
2023/07/21 00:26:47;;;;;;;1.40;1.30;;;;;;;;;;5064974;28;20212;-34
2023/07/21 00:29:14;;;;;;;1.93;1.50;;;;;;;;;;5064798;28;20740;-33
2023/07/21 00:31:46;;;;;;;2.83;1.33;;;;;;;;;;5067982;28;20203;-39
2023/07/21 00:34:14;;;;;;;2.65;1.40;;;;;;;;;;5059749;28;20197;-32
2023/07/21 00:36:41;;;;;;;1.43;1.33;;;;;;;;;;5062584;28;20208;-38
2023/07/21 00:39:09;;;;;;;3.27;1.30;;;;;;;;;;5067699;28;20224;-38
2023/07/21 00:41:36;;;;;;;1.40;1.30;;;;;;;;;;5053496;28;20216;-40
2023/07/21 00:44:08;;;;;;;1.67;1.20;;;;;;;;;;5066571;28;20228;-32
2023/07/21 00:46:35;;;;;;;1.87;1.30;;;;;;;;;;5062633;28;20209;-35
2023/07/21 00:49:04;;;;;;;1.20;1.10;;;;;;;;;;5064137;28;20243;-32
2023/07/21 00:51:31;;;;;;;1.30;1.20;;;;;;;;;;5066349;28;20287;-39
2023/07/21 00:54:00;;;;;;;1.97;1.53;;;;;;;;;;5068429;28;20200;-34
2023/07/21 00:56:27;;;;;;;2.63;1.53;;;;;;;;;;5059931;28;20293;-37
2023/07/21 00:58:54;;;;;;;1.20;1.20;;;;;;;;;;5063677;28;20229;-38
2023/07/21 01:01:22;;;;;;;2.43;1.73;;;;;;;;;;5068605;28;20211;-36
2023/07/21 01:03:50;;;;;;;1.30;1.20;;;;;;;;;;5064473;28;20221;-33
2023/07/21 01:06:19;;;;;;;1.93;1.33;;;;;;;;;;5061631;28;20550;-40
2023/07/21 01:08:47;;;;;;;3.30;1.40;;;;;;;;;;5068659;28;20315;-36
2023/07/21 01:11:14;;;;;;;2.40;1.50;;;;;;;;;;5061155;28;20215;-37
2023/07/21 01:13:42;;;;;;;1.87;1.40;;;;;;;;;;5066129;28;20652;-31
2023/07/21 01:16:10;;;;;;;1.83;1.20;;;;;;;;;;5070255;28;20292;-35
2023/07/21 01:18:38;;;;;;;2.10;1.50;;;;;;;;;;5069639;28;20775;-38
2023/07/21 01:21:05;;;;;;;3.60;1.40;;;;;;;;;;5070090;28;20201;-30
2023/07/21 01:23:46;;;;;;;1.67;1.50;;;;;;;;;;5068525;28;20229;-37
2023/07/21 01:26:14;;;;;;;1.60;1.47;;;;;;;;;;5056634;28;20220;-36
2023/07/21 01:28:42;;;;;;;1.73;1.20;;;;;;;;;;5058604;28;20248;-37
2023/07/21 01:31:10;;;;;;;1.70;1.60;;;;;;;;;;5067557;28;20204;-39
2023/07/21 01:33:37;;;;;;;1.43;1.33;;;;;;;;;;5067229;28;20209;-41
2023/07/21 01:36:06;;;;;;;2.17;1.40;;;;;;;;;;5051583;28;20244;-33
2023/07/21 01:38:33;;;;;;;7.97;1.83;;;;;;;;;;5066330;28;20225;-30
2023/07/21 01:41:01;;;;;;;2.27;1.40;;;;;;;;;;5060890;28;20213;-36
2023/07/21 01:43:29;;;;;;;2.40;1.50;;;;;;;;;;5068638;28;20231;-33
2023/07/21 01:45:56;;;;;;;1.50;1.13;;;;;;;;;;5071554;28;20294;-36
2023/07/21 01:48:24;;;;;;;1.57;1.40;;;;;;;;;;5068190;28;20220;-36
2023/07/21 01:50:52;;;;;;;1.80;1.57;;;;;;;;;;5064562;28;20208;-37
2023/07/21 01:53:22;;;;;;;1.97;1.40;;;;;;;;;;5062149;28;20200;-34
2023/07/21 01:55:58;;;;;;;3.13;1.40;;;;;;;;;;5062896;28;20189;-38
2023/07/21 01:58:25;;;;;;;2.97;1.73;;;;;;;;;;5061318;28;20273;-41
2023/07/21 02:00:55;;;;;;;1.57;1.30;;;;;;;;;;5066930;28;20518;-40
2023/07/21 02:03:22;;;;;;;3.53;1.93;;;;;;;;;;5067041;28;20554;-37
2023/07/21 02:05:49;;;;;;;1.20;1.10;;;;;;;;;;5058853;28;20223;-35
2023/07/21 02:08:17;;;;;;;1.37;1.23;;;;;;;;;;5065692;28;20241;-39
2023/07/21 02:10:44;;;;;;;1.13;1.13;;;;;;;;;;5061477;28;20228;-34
2023/07/21 02:13:13;;;;;;;1.73;1.13;;;;;;;;;;5055118;28;20358;-39
2023/07/21 02:15:40;;;;;;;1.40;1.30;;;;;;;;;;5067186;28;20205;-34
2023/07/21 02:18:09;;;;;;;1.40;1.30;;;;;;;;;;5064412;28;20212;-36
2023/07/21 02:20:36;;;;;;;1.40;1.30;;;;;;;;;;5063338;28;20288;-38
2023/07/21 02:23:03;;;;;;;1.50;1.27;;;;;;;;;;5066686;28;20200;-40
2023/07/21 02:25:30;;;;;;;1.53;1.37;;;;;;;;;;5064998;28;20210;-38
2023/07/21 02:27:57;;;;;;;2.47;1.50;;;;;;;;;;5060610;28;20288;-37
2023/07/21 02:30:24;;;;;;;1.13;1.13;;;;;;;;;;5066662;28;20224;-32
2023/07/21 02:32:51;;;;;;;1.53;1.30;;;;;;;;;;5067095;28;20296;-32
2023/07/21 02:35:20;;;;;;;2.33;1.70;;;;;;;;;;5063492;28;20234;-38
2023/07/21 02:37:47;;;;;;;1.57;1.23;;;;;;;;;;5062041;28;20205;-37
2023/07/21 02:40:14;;;;;;;1.73;1.30;;;;;;;;;;5065789;28;20221;-37
2023/07/21 02:42:42;;;;;;;1.90;1.53;;;;;;;;;;5059565;28;20622;-36
2023/07/21 02:45:10;;;;;;;2.17;1.63;;;;;;;;;;5066090;28;20213;-35
2023/07/21 02:47:37;;;;;;;1.90;1.33;;;;;;;;;;5066985;28;20212;-40
2023/07/21 02:50:07;;;;;;;2.50;1.50;;;;;;;;;;5064378;28;20236;-33
2023/07/21 02:52:38;;;;;;;3.00;1.37;;;;;;;;;;5061356;28;20215;-37
2023/07/21 02:55:07;;;;;;;2.00;1.53;;;;;;;;;;5066906;28;20232;-30
2023/07/21 02:57:35;;;;;;;1.67;1.50;;;;;;;;;;5060962;28;20624;-37
2023/07/21 03:00:03;;;;;;;1.57;1.37;;;;;;;;;;5072202;28;20270;-33
2023/07/21 03:02:34;;;;;;;1.80;1.70;;;;;;;;;;5074333;28;20212;-37
2023/07/21 03:05:05;;;;;;;1.40;1.30;;;;;;;;;;5070411;28;20285;-39
2023/07/21 03:07:32;;;;;;;2.73;1.27;;;;;;;;;;5069348;28;20205;-35
2023/07/21 03:10:01;;;;;;;1.80;1.47;;;;;;;;;;5073402;28;20235;-33
2023/07/21 03:12:28;;;;;;;2.60;1.40;;;;;;;;;;5064856;28;20484;-34
2023/07/21 03:14:55;;;;;;;2.00;1.50;;;;;;;;;;5073335;28;20218;-34
2023/07/21 03:17:22;;;;;;;3.67;1.47;;;;;;;;;;5070294;28;20211;-35
2023/07/21 03:19:49;;;;;;;2.10;1.20;;;;;;;;;;5057991;28;20233;-32
2023/07/21 03:22:16;;;;;;;1.63;1.50;;;;;;;;;;5069707;28;20208;-39
2023/07/21 03:24:44;;;;;;;1.40;1.20;;;;;;;;;;5069240;28;20233;-35
2023/07/21 03:27:13;;;;;;;1.50;1.40;;;;;;;;;;5059207;28;20222;-38
2023/07/21 03:29:41;;;;;;;1.30;1.20;;;;;;;;;;5066402;28;20254;-37
2023/07/21 03:32:09;;;;;;;2.33;1.47;;;;;;;;;;5070293;28;20211;-34
2023/07/21 03:34:36;;;;;;;1.50;1.40;;;;;;;;;;5067196;28;20205;-36
2023/07/21 03:37:04;;;;;;;3.93;1.40;;;;;;;;;;5064222;28;20236;-39
2023/07/21 03:39:31;;;;;;;1.50;1.40;;;;;;;;;;5068735;28;20228;-37
2023/07/21 03:41:58;;;;;;;2.53;1.50;;;;;;;;;;5063079;28;20204;-41
2023/07/21 03:44:27;;;;;;;2.00;1.30;;;;;;;;;;5065822;28;20227;-33
2023/07/21 03:46:54;;;;;;;1.90;1.47;;;;;;;;;;5069387;28;20201;-37
2023/07/21 03:49:21;;;;;;;1.40;1.30;;;;;;;;;;5062093;28;20227;-33
2023/07/21 03:51:48;;;;;;;3.00;1.70;;;;;;;;;;5060928;28;20201;-40
2023/07/21 03:54:15;;;;;;;1.93;1.60;;;;;;;;;;5069265;28;20215;-36
2023/07/21 03:56:42;;;;;;;1.60;1.50;;;;;;;;;;5058631;28;20208;-38
2023/07/21 03:59:10;;;;;;;1.40;1.30;;;;;;;;;;5068502;28;20228;-35
2023/07/21 04:01:38;;;;;;;1.50;1.40;;;;;;;;;;5072193;28;20298;-32
2023/07/21 04:04:06;;;;;;;3.00;1.20;;;;;;;;;;5071682;28;20715;-37
2023/07/21 04:06:33;;;;;;;2.50;1.40;;;;;;;;;;5060850;28;20589;-31
2023/07/21 04:09:00;;;;;;;2.17;1.60;;;;;;;;;;5070637;28;20322;-34
2023/07/21 04:11:27;;;;;;;1.90;1.57;;;;;;;;;;5056544;28;20568;-34
2023/07/21 04:13:56;;;;;;;1.93;1.60;;;;;;;;;;5065762;28;20213;-38
2023/07/21 04:16:23;;;;;;;1.90;1.70;;;;;;;;;;5071543;28;20302;-35
2023/07/21 04:18:51;;;;;;;1.37;1.27;;;;;;;;;;5071909;28;20338;-35
2023/07/21 04:21:19;;;;;;;1.70;1.50;;;;;;;;;;5063154;28;20656;-30
2023/07/21 04:23:46;;;;;;;1.70;1.60;;;;;;;;;;5066158;28;20307;-37
2023/07/21 04:26:15;;;;;;;1.40;1.30;;;;;;;;;;5062331;28;20214;-34
2023/07/21 04:28:42;;;;;;;1.70;1.60;;;;;;;;;;5067279;28;20231;-40
2023/07/21 04:31:10;;;;;;;1.87;1.67;;;;;;;;;;5071354;28;20208;-37
2023/07/21 04:33:38;;;;;;;3.87;1.53;;;;;;;;;;5071548;28;20208;-35
2023/07/21 04:36:06;;;;;;;2.40;1.57;;;;;;;;;;5064106;28;20261;-32
2023/07/21 04:38:34;;;;;;;2.40;1.70;;;;;;;;;;5070848;28;20325;-38
2023/07/21 04:41:01;;;;;;;1.47;1.37;;;;;;;;;;5065562;28;20303;-37
2023/07/21 04:43:28;;;;;;;2.03;1.60;;;;;;;;;;5070077;28;20208;-35
2023/07/21 04:45:55;;;;;;;1.70;1.60;;;;;;;;;;5069992;28;20224;-40
2023/07/21 04:48:22;;;;;;;2.60;1.70;;;;;;;;;;5070828;28;20323;-37
2023/07/21 04:50:52;;;;;;;1.43;1.33;;;;;;;;;;5064125;28;20204;-33
2023/07/21 04:53:21;;;;;;;2.20;1.80;;;;;;;;;;5067086;28;20206;-36
2023/07/21 04:55:48;;;;;;;2.63;1.60;;;;;;;;;;5065537;28;20283;-37
2023/07/21 04:58:15;;;;;;;1.93;1.70;;;;;;;;;;5066476;28;20204;-40
2023/07/21 05:00:42;;;;;;;3.47;1.50;;;;;;;;;;5070110;28;20213;-38
2023/07/21 05:03:09;;;;;;;1.97;1.83;;;;;;;;;;5071007;28;20238;-39
2023/07/21 05:05:38;;;;;;;3.50;1.70;;;;;;;;;;5054386;28;20238;-35
2023/07/21 05:08:06;;;;;;;1.70;1.60;;;;;;;;;;5060186;28;20262;-36
2023/07/21 05:10:35;;;;;;;3.03;1.83;;;;;;;;;;5064550;28;20216;-33
2023/07/21 05:13:05;;;;;;;2.97;1.80;;;;;;;;;;5058665;28;20505;-32
2023/07/21 05:15:35;;;;;;;2.17;1.43;;;;;;;;;;5070453;28;20291;-36
2023/07/21 05:18:02;;;;;;;2.50;1.90;;;;;;;;;;5069832;28;20277;-36
2023/07/21 05:20:29;;;;;;;1.90;1.77;;;;;;;;;;5066561;28;20204;-34
2023/07/21 05:22:56;;;;;;;2.57;1.97;;;;;;;;;;5062987;28;20295;-30
2023/07/21 05:25:23;;;;;;;2.17;1.97;;;;;;;;;;5066304;28;20223;-32
2023/07/21 05:27:52;;;;;;;3.63;1.97;;;;;;;;;;5054269;28;20201;-37
2023/07/21 05:30:19;;;;;;;1.60;1.50;;;;;;;;;;5070276;28;20498;-34
2023/07/21 05:32:47;;;;;;;5.53;2.00;;;;;;;;;;5070198;28;20201;-38
2023/07/21 05:35:14;;;;;;;2.83;1.70;;;;;;;;;;5065140;28;20216;-32
2023/07/21 05:37:41;;;;;;;1.63;1.53;;;;;;;;;;5066832;28;20832;-34
2023/07/21 05:40:09;;;;;;;3.50;1.90;;;;;;;;;;5069570;28;20236;-39
2023/07/21 05:42:38;;;;;;;4.83;1.93;;;;;;;;;;5053144;28;20277;-39
2023/07/21 05:45:07;;;;;;;2.10;1.90;;;;;;;;;;5064596;28;20239;-37
2023/07/21 05:47:34;;;;;;;1.83;1.73;;;;;;;;;;5068781;28;20207;-36
2023/07/21 05:50:07;;;;;;;2.50;2.10;;;;;;;;;;5061054;28;20234;-36
2023/07/21 05:52:34;;;;;;;3.93;1.87;;;;;;;;;;5060921;28;20209;-38
2023/07/21 05:55:03;;;;;;;2.63;1.80;;;;;;;;;;5067382;28;20204;-34
2023/07/21 05:57:37;;;;;;;2.50;1.70;;;;;;;;;;5060481;28;20220;-37
2023/07/21 06:00:04;;;;;;;3.17;1.80;;;;;;;;;;5070819;28;20235;-35
2023/07/21 06:02:33;;;;;;;2.03;1.83;;;;;;;;;;5073493;28;20209;-33
2023/07/21 06:05:00;;;;;;;1.83;1.60;;;;;;;;;;5062634;28;20221;-33
2023/07/21 06:07:28;;;;;;;3.57;2.40;;;;;;;;;;5069456;28;20215;-35
2023/07/21 06:09:55;;;;;;;2.17;1.83;;;;;;;;;;5069373;28;20230;-37
2023/07/21 06:12:22;;;;;;;2.20;2.00;;;;;;;;;;5061724;28;20335;-35
2023/07/21 06:14:49;;;;;;;2.93;2.03;;;;;;;;;;5066100;28;20204;-37
2023/07/21 06:17:19;;;;;;;2.00;1.80;;;;;;;;;;5069255;28;20204;-36
2023/07/21 06:19:49;;;;;;;1.80;1.70;;;;;;;;;;5059787;28;20236;-37
2023/07/21 06:22:16;;;;;;;1.83;1.53;;;;;;;;;;5063973;28;20220;-32
2023/07/21 06:24:44;;;;;;;3.20;1.90;;;;;;;;;;5066313;28;20232;-35
2023/07/21 06:27:12;;;;;;;2.27;1.73;;;;;;;;;;5061417;28;20223;-34
2023/07/21 06:29:40;;;;;;;2.37;1.70;;;;;;;;;;5068131;28;20221;-34
2023/07/21 06:32:07;;;;;;;1.93;1.63;;;;;;;;;;5068909;28;20193;-37
2023/07/21 06:34:35;;;;;;;1.97;1.70;;;;;;;;;;5057162;28;20538;-33
2023/07/21 06:37:03;;;;;;;1.63;1.53;;;;;;;;;;5064295;28;20205;-34
2023/07/21 06:39:30;;;;;;;2.13;1.65;;;;;;;;;;5068514;28;20231;-32
2023/07/21 06:41:57;;;;;;;1.90;1.73;;;;;;;;;;5059762;28;20201;-31
2023/07/21 06:44:24;;;;;;;3.33;1.63;;;;;;;;;;5066059;28;20239;-36
2023/07/21 06:46:52;;;;;;;1.70;1.60;;;;;;;;;;5068134;28;20208;-35
2023/07/21 06:49:19;;;;;;;4.07;2.10;;;;;;;;;;5063439;28;20286;-37
2023/07/21 06:51:46;;;;;;;2.90;1.90;;;;;;;;;;5058147;28;20210;-34
2023/07/21 06:54:15;;;;;;;3.77;1.80;;;;;;;;;;5068434;28;20205;-37
2023/07/21 06:56:42;;;;;;;2.83;1.70;;;;;;;;;;5055370;28;20210;-33
2023/07/21 06:59:09;;;;;;;2.57;1.80;;;;;;;;;;5069240;28;20228;-34
2023/07/21 07:01:36;;;;;;;1.50;1.40;;;;;;;;;;5069053;28;20197;-31
2023/07/21 07:04:03;;;;;;;2.38;1.60;;;;;;;;;;5068112;28;20205;-39
2023/07/21 07:06:31;;;;;;;2.33;1.65;;;;;;;;;;5059797;28;20239;-37
2023/07/21 07:08:58;;;;;;;1.80;1.63;;;;;;;;;;5066660;28;20227;-37
2023/07/21 07:11:27;;;;;;;2.38;1.70;;;;;;;;;;5060290;28;20205;-40
2023/07/21 07:13:54;;;;;;;1.45;1.35;;;;;;;;;;5065711;28;20213;-36
2023/07/21 07:16:21;;;;;;;2.83;1.67;;;;;;;;;;5061699;28;20292;-33
2023/07/21 07:18:48;;;;;;;1.93;1.80;;;;;;;;;;5064451;28;20241;-37
2023/07/21 07:21:15;;;;;;;4.10;1.60;;;;;;;;;;5063986;28;20209;-35
2023/07/21 07:23:42;;;;;;;3.30;1.63;;;;;;;;;;5068570;28;20269;-37
2023/07/21 07:26:09;;;;;;;4.60;1.70;;;;;;;;;;5059114;28;20226;-40
2023/07/21 07:28:38;;;;;;;1.50;1.40;;;;;;;;;;5058571;28;20247;-38
2023/07/21 07:31:06;;;;;;;2.63;1.60;;;;;;;;;;5067263;28;20211;-37
2023/07/21 07:33:33;;;;;;;2.63;1.57;;;;;;;;;;5068497;28;20227;-29
2023/07/21 07:36:01;;;;;;;4.70;1.67;;;;;;;;;;5060550;28;20201;-41
2023/07/21 07:38:30;;;;;;;2.60;1.42;;;;;;;;;;5064271;28;20229;-37
2023/07/21 07:41:03;;;;;;;2.70;1.88;;;;;;;;;;5062804;28;20201;-38
2023/07/21 07:43:32;;;;;;;1.80;1.70;;;;;;;;;;5059779;28;20201;-36
2023/07/21 07:46:00;;;;;;;3.20;1.77;;;;;;;;;;5070007;28;20319;-34
2023/07/21 07:48:27;;;;;;;2.30;1.40;;;;;;;;;;5071889;28;20224;-36
2023/07/21 07:50:55;;;;;;;1.55;1.30;;;;;;;;;;5067671;28;20211;-36
2023/07/21 07:53:22;;;;;;;1.70;1.60;;;;;;;;;;5066050;28;20219;-35
2023/07/21 07:55:49;;;;;;;2.72;2.20;;;;;;;;;;5069325;28;20216;-34
2023/07/21 07:58:16;;;;;;;2.58;1.60;;;;;;;;;;5071153;28;20267;-33
2023/07/21 08:00:44;;;;;;;5.82;1.80;;;;;;;;;;5071747;28;20208;-33
2023/07/21 08:03:12;;;;;;;2.17;1.77;;;;;;;;;;5072472;28;20228;-36
2023/07/21 08:05:41;;;;;;;1.88;1.60;;;;;;;;;;5065189;28;20229;-33
2023/07/21 08:08:09;;;;;;;3.88;1.88;;;;;;;;;;5071557;28;20254;-37
2023/07/21 08:10:36;;;;;;;3.60;2.00;;;;;;;;;;5070278;28;20319;-31
2023/07/21 08:13:05;;;;;;;2.10;1.70;;;;;;;;;;5063648;28;20304;-39
2023/07/21 08:15:32;;;;;;;3.33;2.17;;;;;;;;;;5072152;28;20205;-34
2023/07/21 08:17:59;;;;;;;1.90;1.80;;;;;;;;;;5072212;28;20208;-37
2023/07/21 08:20:28;;;;;;;2.40;1.75;;;;;;;;;;5065777;28;20340;-32
2023/07/21 08:22:55;;;;;;;4.97;1.45;;;;;;;;;;5053992;28;20209;-38
2023/07/21 08:25:22;;;;;;;2.95;1.70;;;;;;;;;;5062805;28;20216;-36
2023/07/21 08:27:49;;;;;;;1.70;1.60;;;;;;;;;;5057917;28;20210;-36
2023/07/21 08:30:16;;;;;;;2.30;2.10;;;;;;;;;;5067020;28;20221;-34
2023/07/21 08:32:44;;;;;;;1.85;1.75;;;;;;;;;;5066001;28;20198;-38
2023/07/21 08:35:11;;;;;;;2.95;1.60;;;;;;;;;;5060546;28;20212;-40
2023/07/21 08:37:39;;;;;;;2.65;1.63;;;;;;;;;;5063414;28;20209;-32
2023/07/21 08:40:07;;;;;;;3.47;1.90;;;;;;;;;;5071292;28;20240;-33
2023/07/21 08:42:35;;;;;;;2.85;1.50;;;;;;;;;;5057475;28;20237;-36
2023/07/21 08:45:04;;;;;;;5.53;1.80;;;;;;;;;;5070025;28;20198;-35
2023/07/21 08:47:32;;;;;;;2.47;1.90;;;;;;;;;;5069137;28;20202;-35
2023/07/21 08:49:59;;;;;;;2.63;1.88;;;;;;;;;;5058807;28;20232;-36
2023/07/21 08:52:26;;;;;;;4.05;1.83;;;;;;;;;;5071699;28;20206;-32
2023/07/21 08:54:55;;;;;;;6.05;1.45;;;;;;;;;;5068382;28;20205;-38
2023/07/21 08:57:22;;;;;;;2.22;1.73;;;;;;;;;;5061681;28;20237;-36
2023/07/21 08:59:50;;;;;;;5.30;1.60;;;;;;;;;;5067473;28;20229;-37
2023/07/21 09:02:17;;;;;;;4.93;1.50;;;;;;;;;;5063278;28;20209;-39
2023/07/21 09:04:45;;;;;;;3.90;1.65;;;;;;;;;;5073455;28;20207;-36
2023/07/21 09:07:16;;;;;;;2.90;1.48;;;;;;;;;;5058156;28;20523;-40
2023/07/21 09:10:06;;;;;;;3.38;1.65;;;;;;;;;;5071452;28;20273;-38
2023/07/21 09:12:38;;;;;;;2.05;1.60;;;;;;;;;;5052825;28;20303;-38
2023/07/21 09:15:11;;;;;;;1.40;1.30;;;;;;;;;;5064360;28;20212;-35
2023/07/21 09:17:45;;;;;;;4.10;1.58;;;;;;;;;;5058960;28;20211;-41
2023/07/21 09:20:12;;;;;;;1.67;1.30;;;;;;;;;;5065606;28;20259;-33
2023/07/21 09:22:40;;;;;;;6.47;1.90;;;;;;;;;;5066476;28;20214;-35
2023/07/21 09:25:08;;;;;;;2.20;1.70;;;;;;;;;;5066469;28;20197;-33
2023/07/21 09:27:38;;;;;;;1.83;1.42;;;;;;;;;;5062968;28;20212;-35
2023/07/21 09:30:10;;;;;;;3.55;1.42;;;;;;;;;;5064943;28;20263;-41
2023/07/21 09:32:43;;;;;;;1.55;1.45;;;;;;;;;;5065904;28;20216;-36
2023/07/21 09:35:13;;;;;;;3.58;1.20;;;;;;;;;;5062673;28;20492;-39
2023/07/21 09:37:41;;;;;;;1.98;1.40;;;;;;;;;;5062192;28;20208;-37
2023/07/21 09:40:10;;;;;;;2.65;1.70;;;;;;;;;;5063121;28;20227;-34
2023/07/21 09:42:43;;;;;;;1.33;1.08;;;;;;;;;;5057399;28;20236;-37
2023/07/21 09:45:13;;;;;;;1.30;1.20;;;;;;;;;;5068395;28;20679;-31
2023/07/21 09:47:40;;;;;;;2.67;1.35;;;;;;;;;;5070167;28;20222;-33
2023/07/21 09:50:08;;;;;;;1.88;1.30;;;;;;;;;;5066704;28;20312;-37
2023/07/21 09:52:42;;;;;;;1.23;1.08;;;;;;;;;;5066029;28;20211;-35
2023/07/21 09:55:18;;;;;;;1.50;1.40;;;;;;;;;;5060203;28;20206;-34
2023/07/21 09:57:46;;;;;;;1.58;1.48;;;;;;;;;;5062680;28;20218;-36
2023/07/21 10:00:17;;;;;;;2.42;1.30;;;;;;;;;;5068261;28;20286;-38
2023/07/21 10:02:45;;;;;;;2.67;1.48;;;;;;;;;;5063687;28;20204;-35
2023/07/21 10:05:13;;;;;;;4.50;1.40;;;;;;;;;;5060303;28;20215;-37
2023/07/21 10:10:11;;;;;;;6.43;1.40;;;;;;;;;;5038435;28;20309;-30
2023/07/21 10:12:49;;;;;;;1.52;1.38;;;;;;;;;;5045331;28;20204;-34
2023/07/21 10:15:20;;;;;;;1.30;1.15;;;;;;;;;;5027590;28;20255;-34
2023/07/21 10:17:59;;;;;;;1.60;1.40;;;;;;;;;;5035485;28;20211;-32
2023/07/21 10:20:38;;;;;;;2.13;1.27;;;;;;;;;;5035918;28;20217;-31
2023/07/21 10:23:05;;;;;;;1.33;1.23;;;;;;;;;;5046412;28;20209;-34
2023/07/21 10:25:46;;;;;;;2.15;1.23;;;;;;;;;;5045372;28;20208;-32
2023/07/21 10:28:13;;;;;;;1.42;1.25;;;;;;;;;;5043048;28;20220;-35
2023/07/21 10:30:42;;;;;;;2.83;1.45;;;;;;;;;;5036531;28;20213;-30
2023/07/21 10:33:13;;;;;;;1.20;1.10;;;;;;;;;;5042820;28;20358;-34
2023/07/21 10:35:41;;;;;;;1.67;1.40;;;;;;;;;;5042992;28;20208;-31
2023/07/21 10:38:27;;;;;;;1.63;1.17;;;;;;;;;;5029860;28;20202;-31
2023/07/21 10:40:54;;;;;;;1.95;1.33;;;;;;;;;;5038360;28;20210;-30
2023/07/21 10:43:21;;;;;;;1.42;1.33;;;;;;;;;;5043965;28;20206;-35
2023/07/21 10:45:56;;;;;;;1.98;1.33;;;;;;;;;;5031434;28;20217;-34
2023/07/21 10:48:29;;;;;;;1.45;1.30;;;;;;;;;;5028671;28;20230;-31
2023/07/21 10:50:58;;;;;;;1.80;1.50;;;;;;;;;;5045789;28;20213;-28
2023/07/21 10:53:26;;;;;;;1.70;1.40;;;;;;;;;;5035657;28;20208;-32
2023/07/21 10:55:53;;;;;;;1.73;1.50;;;;;;;;;;5034180;28;20249;-30
2023/07/21 10:58:21;;;;;;;1.35;1.25;;;;;;;;;;5048359;28;20235;-35
2023/07/21 11:00:48;;;;;;;4.30;1.55;;;;;;;;;;5040937;28;20221;-35
2023/07/21 11:03:17;;;;;;;1.58;1.20;;;;;;;;;;5029518;28;20212;-31
2023/07/21 11:05:44;;;;;;;3.08;1.40;;;;;;;;;;5032888;28;20213;-31
2023/07/21 11:08:12;;;;;;;2.45;1.50;;;;;;;;;;5042658;28;20211;-34
2023/07/21 11:10:40;;;;;;;1.83;1.20;;;;;;;;;;5032818;28;20676;-34
2023/07/21 11:13:15;;;;;;;1.30;1.02;;;;;;;;;;5040929;28;20203;-32
2023/07/21 11:15:43;;;;;;;1.85;1.33;;;;;;;;;;5041835;28;20199;-36
2023/07/21 11:18:11;;;;;;;2.17;1.38;;;;;;;;;;5027770;28;20584;-32
2023/07/21 11:20:42;;;;;;;1.65;1.55;;;;;;;;;;5046907;28;20207;-32
2023/07/21 11:23:09;;;;;;;2.30;1.42;;;;;;;;;;5040033;28;20205;-33
2023/07/21 11:25:36;;;;;;;2.35;1.33;;;;;;;;;;5053989;28;20212;-32
2023/07/21 11:28:05;;;;;;;3.47;1.60;;;;;;;;;;5044769;28;20232;-35
2023/07/21 11:30:38;;;;;;;1.92;1.50;;;;;;;;;;5048104;28;20291;-30
2023/07/21 11:33:09;;;;;;;3.72;1.30;;;;;;;;;;5044052;28;20250;-39
2023/07/21 11:35:36;;;;;;;2.03;1.52;;;;;;;;;;5046968;28;20219;-36
2023/07/21 11:38:10;;;;;;;1.55;1.38;;;;;;;;;;5041627;28;20228;-33
2023/07/21 11:40:37;;;;;;;1.33;1.23;;;;;;;;;;5048388;28;20231;-31
2023/07/21 11:43:07;;;;;;;2.58;1.20;;;;;;;;;;5047990;28;20211;-33
2023/07/21 11:45:35;;;;;;;3.58;1.23;;;;;;;;;;5040907;28;20213;-31
2023/07/21 11:48:13;;;;;;;3.80;1.40;;;;;;;;;;5043470;28;20437;-31
2023/07/21 11:50:50;;;;;;;3.28;1.20;;;;;;;;;;5054137;28;20202;-28
2023/07/21 11:53:45;;;;;;;1.45;1.13;;;;;;;;;;5053664;28;20202;-29
2023/07/21 11:56:13;;;;;;;1.10;1.10;;;;;;;;;;5038253;28;20217;-34
2023/07/21 11:58:40;;;;;;;2.47;1.15;;;;;;;;;;5054073;28;20256;-27
2023/07/21 12:01:08;;;;;;;1.02;1.02;;;;;;;;;;5052760;28;20289;-33
2023/07/21 12:03:36;;;;;;;1.13;1.00;;;;;;;;;;5046969;28;20213;-35
2023/07/21 12:06:04;;;;;;;4.10;1.30;;;;;;;;;;5054778;28;20261;-35
2023/07/21 12:08:33;;;;;;;3.78;1.05;;;;;;;;;;5049401;28;20277;-31
2023/07/21 12:11:00;;;;;;;2.25;1.27;;;;;;;;;;5037014;28;20208;-34
2023/07/21 12:13:27;;;;;;;1.50;1.40;;;;;;;;;;5047828;28;20209;-32
2023/07/21 12:15:54;;;;;;;5.72;1.50;;;;;;;;;;5054973;28;20207;-31
2023/07/21 12:18:22;;;;;;;3.88;1.40;;;;;;;;;;5049237;28;20228;-33
2023/07/21 12:20:50;;;;;;;6.78;1.40;;;;;;;;;;5052667;28;20209;-31
2023/07/21 12:23:17;;;;;;;2.53;1.40;;;;;;;;;;5035463;28;20214;-35
2023/07/21 12:25:45;;;;;;;2.42;1.38;;;;;;;;;;5055285;28;20215;-34
2023/07/21 12:28:13;;;;;;;1.95;1.33;;;;;;;;;;5046612;28;20258;-33
2023/07/21 12:30:41;;;;;;;1.77;1.33;;;;;;;;;;5045201;28;20295;-33
2023/07/21 12:33:13;;;;;;;1.73;1.38;;;;;;;;;;5048106;28;20200;-30
2023/07/21 12:35:48;;;;;;;2.95;1.27;;;;;;;;;;5037060;28;20237;-34
2023/07/21 12:38:16;;;;;;;1.52;1.42;;;;;;;;;;5051374;28;20216;-30
2023/07/21 12:40:43;;;;;;;3.33;1.52;;;;;;;;;;5063959;28;20410;-28
2023/07/21 12:43:12;;;;;;;1.27;1.15;;;;;;;;;;5062827;28;20206;-32
2023/07/21 12:45:40;;;;;;;3.88;1.17;;;;;;;;;;5056728;28;20209;-30
2023/07/21 12:48:13;;;;;;;1.27;1.17;;;;;;;;;;5038747;28;20233;-32
2023/07/21 12:50:40;;;;;;;1.92;1.15;;;;;;;;;;5057347;28;20204;-31
2023/07/21 12:53:07;;;;;;;2.00;1.20;;;;;;;;;;5070777;28;20199;-31
2023/07/21 12:55:34;;;;;;;2.15;1.52;;;;;;;;;;5036603;28;20206;-31
2023/07/21 12:58:01;;;;;;;1.42;1.30;;;;;;;;;;5047468;28;20202;-30
2023/07/21 13:00:30;;;;;;;2.88;1.27;;;;;;;;;;5053900;28;20202;-30
2023/07/21 13:02:57;;;;;;;1.42;1.20;;;;;;;;;;5054301;28;20206;-34
2023/07/21 13:05:25;;;;;;;1.70;1.50;;;;;;;;;;5048106;28;20211;-33
2023/07/21 13:07:52;;;;;;;3.97;1.50;;;;;;;;;;5056134;28;20298;-28
2023/07/21 13:10:19;;;;;;;1.65;1.30;;;;;;;;;;5052465;28;20227;-32
2023/07/21 13:12:54;;;;;;;4.35;1.60;;;;;;;;;;5059868;28;20632;-30
2023/07/21 13:15:21;;;;;;;7.20;2.05;;;;;;;;;;5042268;28;20195;-31
2023/07/21 13:17:50;;;;;;;1.92;1.33;;;;;;;;;;5035440;28;20211;-33
2023/07/21 13:20:17;;;;;;;2.13;1.30;;;;;;;;;;5035785;28;20235;-33
2023/07/21 13:22:44;;;;;;;1.52;1.30;;;;;;;;;;5054845;28;20216;-31
2023/07/21 13:25:15;;;;;;;3.38;1.40;;;;;;;;;;5050126;28;20209;-30
2023/07/21 13:27:42;;;;;;;1.60;1.50;;;;;;;;;;5050692;28;20226;-30
2023/07/21 13:30:09;;;;;;;1.60;1.50;;;;;;;;;;5038264;28;20302;-28
2023/07/21 13:32:37;;;;;;;1.30;1.20;;;;;;;;;;5050582;28;20210;-34
2023/07/21 13:35:06;;;;;;;1.40;1.30;;;;;;;;;;5041793;28;20198;-32
2023/07/21 13:37:35;;;;;;;1.88;1.33;;;;;;;;;;5041754;28;20213;-31
2023/07/21 13:40:04;;;;;;;1.50;1.40;;;;;;;;;;5052836;28;20307;-34
2023/07/21 13:42:31;;;;;;;1.58;1.42;;;;;;;;;;5046006;28;20217;-32
2023/07/21 13:45:16;;;;;;;2.78;1.35;;;;;;;;;;5035958;28;20203;-32
2023/07/21 13:47:43;;;;;;;2.20;1.40;;;;;;;;;;5052910;28;20222;-32
2023/07/21 13:50:11;;;;;;;1.73;1.55;;;;;;;;;;5050035;28;20228;-34
2023/07/21 13:52:44;;;;;;;2.95;1.38;;;;;;;;;;5054225;28;20208;-31
2023/07/21 13:55:14;;;;;;;3.20;1.58;;;;;;;;;;5054434;28;20213;-30
2023/07/21 13:57:49;;;;;;;1.67;1.40;;;;;;;;;;5056526;28;20197;-36
2023/07/21 14:00:21;;;;;;;2.60;1.15;;;;;;;;;;5035057;28;20225;-31
2023/07/21 14:02:50;;;;;;;2.05;1.40;;;;;;;;;;5053022;28;20269;-34
2023/07/21 14:05:20;;;;;;;1.60;1.48;;;;;;;;;;5045703;28;20202;-31
2023/07/21 14:07:55;;;;;;;2.03;1.73;;;;;;;;;;5040218;28;20225;-29
2023/07/21 14:10:26;;;;;;;1.30;1.10;;;;;;;;;;5029297;28;20233;-34
2023/07/21 14:13:14;;;;;;;3.10;1.70;;;;;;;;;;5050483;28;20201;-31
2023/07/21 14:15:45;;;;;;;1.55;1.42;;;;;;;;;;5033094;28;20209;-29
2023/07/21 14:18:26;;;;;;;2.90;1.40;;;;;;;;;;5031955;28;20203;-32
2023/07/21 14:20:59;;;;;;;2.03;1.25;;;;;;;;;;5040525;28;20249;-33
2023/07/21 14:23:40;;;;;;;1.40;1.30;;;;;;;;;;5044107;28;20300;-34
2023/07/21 14:26:20;;;;;;;4.97;1.40;;;;;;;;;;5049723;28;20226;-30
2023/07/21 14:29:32;;;;;;;1.23;1.13;;;;;;;;;;5050248;28;20312;-31
2023/07/21 14:32:21;;;;;;;1.30;1.20;;;;;;;;;;5065690;28;20209;-31
2023/07/21 14:35:09;;;;;;;0.82;0.82;;;;;;;;;;5051255;28;20202;-31
2023/07/21 14:38:08;;;;;;;1.20;1.10;;;;;;;;;;5038849;28;20466;-31
2023/07/21 14:40:40;;;;;;;1.52;1.38;;;;;;;;;;5037717;28;20209;-28
2023/07/21 14:43:10;;;;;;;1.67;1.42;;;;;;;;;;5060151;28;20208;-29
2023/07/21 14:45:45;;;;;;;1.70;1.50;;;;;;;;;;5042992;28;20202;-28
2023/07/21 14:51:02;;;;;;;1.35;1.25;;;;;;;;;;5046935;28;20292;-32
2023/07/21 14:53:45;;;;;;;4.68;1.42;;;;;;;;;;5072425;28;20288;-28
2023/07/21 14:56:29;;;;;;;2.28;1.13;;;;;;;;;;5037506;28;20205;-30
2023/07/21 14:59:04;;;;;;;5.85;1.40;;;;;;;;;;5048023;28;20230;-31
2023/07/21 15:01:38;;;;;;;2.78;2.58;;;;;;;;;;5037334;28;20187;-31